createdAt,value
2022-08-26T00:01:30.073Z,22.74
2022-08-26T00:04:15.737Z,22.76
2022-08-26T00:07:01.292Z,22.76
2022-08-26T00:09:47.585Z,22.76
2022-08-26T00:12:37.278Z,22.76
2022-08-26T00:15:26.188Z,22.75
2022-08-26T00:18:21.811Z,22.76
2022-08-26T00:21:09.457Z,22.76
2022-08-26T00:23:54.995Z,22.75
2022-08-26T00:26:41.341Z,22.74
2022-08-26T00:29:27.187Z,22.74
2022-08-26T00:32:12.636Z,22.72
2022-08-26T00:34:59.892Z,22.73
2022-08-26T00:37:45.818Z,22.74
2022-08-26T00:40:38.828Z,22.73
2022-08-26T00:43:25.398Z,22.73
2022-08-26T00:46:16.647Z,22.72
2022-08-26T00:49:25.882Z,22.71
2022-08-26T00:52:15.783Z,22.72
2022-08-26T00:55:20.565Z,22.69
2022-08-26T00:58:08.651Z,22.68
2022-08-26T01:00:54.703Z,22.68
2022-08-26T01:03:42.299Z,22.67
2022-08-26T01:06:28.583Z,22.70
2022-08-26T01:09:14.917Z,22.72
2022-08-26T01:12:03.045Z,22.70
2022-08-26T01:14:49.005Z,22.71
2022-08-26T01:17:34.461Z,22.72
2022-08-26T01:20:29.702Z,22.71
2022-08-26T01:23:15.928Z,22.71
2022-08-26T01:26:07.588Z,22.72
2022-08-26T01:29:05.989Z,22.70
2022-08-26T01:31:57.887Z,22.68
2022-08-26T01:34:43.463Z,22.70
2022-08-26T01:37:34.862Z,22.70
2022-08-26T01:40:25.694Z,22.68
2022-08-26T01:43:17.713Z,22.68
2022-08-26T01:46:03.859Z,22.68
2022-08-26T01:48:52.352Z,22.67
2022-08-26T01:51:41.048Z,22.68
2022-08-26T01:54:26.513Z,22.67
2022-08-26T01:57:15.503Z,22.66
2022-08-26T02:00:02.399Z,22.67
2022-08-26T02:03:17.214Z,22.66
2022-08-26T02:06:09.346Z,22.67
2022-08-26T02:08:57.795Z,22.64
2022-08-26T02:11:44.658Z,22.64
2022-08-26T02:14:34.770Z,22.63
2022-08-26T02:17:24.529Z,22.64
2022-08-26T02:20:13.312Z,22.63
2022-08-26T02:23:00.223Z,22.63
2022-08-26T02:26:09.922Z,22.61
2022-08-26T02:29:01.861Z,22.62
2022-08-26T02:31:48.550Z,22.62
2022-08-26T02:34:34.916Z,22.63
2022-08-26T02:37:20.191Z,22.61
2022-08-26T02:40:09.920Z,22.63
2022-08-26T02:42:57.062Z,22.62
2022-08-26T02:45:43.136Z,22.62
2022-08-26T02:48:29.360Z,22.62
2022-08-26T02:51:14.936Z,22.61
2022-08-26T02:54:00.231Z,22.60
2022-08-26T02:56:46.622Z,22.61
2022-08-26T02:59:32.275Z,22.61
2022-08-26T03:02:17.905Z,22.62
2022-08-26T03:05:04.171Z,22.59
2022-08-26T03:07:49.617Z,22.60
2022-08-26T03:10:34.784Z,22.60
2022-08-26T03:13:20.039Z,22.60
2022-08-26T03:16:06.474Z,22.59
2022-08-26T03:18:52.329Z,22.58
2022-08-26T03:21:39.239Z,22.59
2022-08-26T03:24:25.943Z,22.59
2022-08-26T03:27:11.528Z,22.58
2022-08-26T03:30:15.125Z,22.59
2022-08-26T03:33:01.383Z,22.58
2022-08-26T03:35:50.618Z,22.58
2022-08-26T03:38:36.240Z,22.56
2022-08-26T03:41:21.919Z,22.57
2022-08-26T03:44:11.279Z,22.57
2022-08-26T03:46:56.718Z,22.57
2022-08-26T03:49:41.922Z,22.57
2022-08-26T03:52:27.997Z,22.59
2022-08-26T03:55:14.393Z,22.58
2022-08-26T03:58:00.767Z,22.58
2022-08-26T04:00:46.381Z,22.57
2022-08-26T04:03:50.344Z,22.56
2022-08-26T04:06:45.179Z,22.58
2022-08-26T04:09:31.045Z,22.60
2022-08-26T04:12:21.012Z,22.62
2022-08-26T04:15:14.010Z,22.61
2022-08-26T04:17:59.560Z,22.63
2022-08-26T04:20:44.799Z,22.66
2022-08-26T04:23:30.279Z,22.67
2022-08-26T04:26:17.143Z,22.70
2022-08-26T04:29:05.326Z,22.71
2022-08-26T04:31:55.609Z,22.74
2022-08-26T04:34:42.320Z,22.77
2022-08-26T04:37:27.765Z,22.78
2022-08-26T04:40:13.142Z,22.78
2022-08-26T04:42:58.625Z,22.77
2022-08-26T04:45:44.335Z,22.78
2022-08-26T04:48:31.122Z,22.80
2022-08-26T04:51:16.483Z,22.81
2022-08-26T04:54:02.295Z,22.79
2022-08-26T04:56:49.538Z,22.80
2022-08-26T04:59:39.132Z,22.82
2022-08-26T05:02:24.860Z,22.81
2022-08-26T05:05:10.764Z,22.79
2022-08-26T05:08:00.501Z,22.84
2022-08-26T05:10:49.305Z,22.84
2022-08-26T05:13:35.788Z,22.86
2022-08-26T05:16:22.459Z,22.83
2022-08-26T05:19:08.608Z,22.81
2022-08-26T05:21:54.229Z,22.80
2022-08-26T05:24:41.348Z,22.79
2022-08-26T05:27:26.519Z,22.77
2022-08-26T05:30:12.219Z,22.79
2022-08-26T05:32:57.915Z,22.79
2022-08-26T05:35:45.148Z,22.78
2022-08-26T05:38:31.527Z,22.81
2022-08-26T05:41:21.675Z,22.81
2022-08-26T05:44:10.475Z,22.89
2022-08-26T05:46:55.893Z,22.95
2022-08-26T05:49:51.331Z,22.92
2022-08-26T05:52:37.800Z,22.91
2022-08-26T05:55:23.415Z,22.91
2022-08-26T05:58:08.596Z,22.91
2022-08-26T06:00:58.455Z,22.93
2022-08-26T06:03:47.610Z,22.93
2022-08-26T06:06:36.484Z,22.91
2022-08-26T06:09:21.708Z,22.89
2022-08-26T06:12:07.272Z,22.87
2022-08-26T06:14:52.730Z,22.86
2022-08-26T06:17:37.992Z,22.82
2022-08-26T06:20:23.497Z,22.83
2022-08-26T06:23:28.168Z,22.82
2022-08-26T06:26:16.165Z,22.82
2022-08-26T06:29:02.485Z,22.83
2022-08-26T06:31:50.148Z,22.83
2022-08-26T06:34:37.109Z,22.81
2022-08-26T06:37:22.593Z,22.82
2022-08-26T06:40:09.931Z,22.81
2022-08-26T06:42:57.049Z,22.81
2022-08-26T06:45:44.795Z,22.81
2022-08-26T06:48:30.048Z,22.80
2022-08-26T06:51:19.749Z,22.79
2022-08-26T06:54:10.142Z,22.79
2022-08-26T06:56:57.660Z,22.78
2022-08-26T06:59:43.154Z,22.78
2022-08-26T07:02:28.545Z,22.78
2022-08-26T07:05:14.825Z,22.79
2022-08-26T07:08:00.229Z,22.77
2022-08-26T07:10:45.368Z,22.77
2022-08-26T07:13:31.046Z,22.78
2022-08-26T07:16:18.106Z,22.79
2022-08-26T07:19:10.862Z,22.79
2022-08-26T07:21:56.763Z,22.81
2022-08-26T07:24:42.699Z,22.80
2022-08-26T07:27:29.382Z,22.79
2022-08-26T07:30:15.018Z,22.79
2022-08-26T07:33:00.698Z,22.79
2022-08-26T07:35:45.947Z,22.78
2022-08-26T07:38:32.395Z,22.77
2022-08-26T07:41:22.837Z,22.77
2022-08-26T07:44:08.912Z,22.77
2022-08-26T07:46:55.585Z,22.75
2022-08-26T07:49:42.792Z,22.76
2022-08-26T07:52:30.449Z,22.76
2022-08-26T07:55:16.260Z,22.77
2022-08-26T07:58:02.616Z,22.75
2022-08-26T08:00:47.846Z,22.76
2022-08-26T08:03:33.752Z,22.75
2022-08-26T08:06:27.294Z,22.74
2022-08-26T08:09:14.866Z,22.75
2022-08-26T08:12:01.769Z,22.74
2022-08-26T08:14:48.326Z,22.75
2022-08-26T08:17:34.547Z,22.78
2022-08-26T08:20:21.280Z,22.81
2022-08-26T08:23:08.201Z,22.82
2022-08-26T08:26:08.288Z,22.82
2022-08-26T08:28:55.872Z,22.83
2022-08-26T08:31:58.010Z,22.82
2022-08-26T08:37:35.157Z,22.79
2022-08-26T08:40:21.468Z,22.80
2022-08-26T08:43:10.926Z,22.80
2022-08-26T08:46:04.371Z,22.79
2022-08-26T08:48:56.848Z,22.77
2022-08-26T08:51:48.392Z,22.75
2022-08-26T08:54:33.973Z,22.74
2022-08-26T08:57:31.581Z,22.74
2022-08-26T09:00:19.378Z,22.73
2022-08-26T09:03:26.864Z,22.72
2022-08-26T09:06:17.032Z,22.72
2022-08-26T09:09:04.857Z,22.73
2022-08-26T09:11:51.958Z,22.72
2022-08-26T09:14:37.403Z,22.72
2022-08-26T09:17:22.507Z,22.71
2022-08-26T09:20:37.459Z,22.72
2022-08-26T09:23:23.083Z,22.73
2022-08-26T09:26:19.438Z,22.72
2022-08-26T09:29:18.373Z,22.73
2022-08-26T09:32:24.940Z,22.71
2022-08-26T09:35:26.959Z,22.71
2022-08-26T09:38:27.907Z,22.71
2022-08-26T09:41:27.539Z,22.71
2022-08-26T09:44:18.929Z,22.70
2022-08-26T09:47:06.787Z,22.70
2022-08-26T09:50:09.477Z,22.71
2022-08-26T09:53:09.978Z,22.71
2022-08-26T09:56:27.547Z,22.71
2022-08-26T09:59:13.225Z,22.72
2022-08-26T10:02:17.297Z,22.73
2022-08-26T10:05:09.546Z,22.78
2022-08-26T10:07:55.512Z,22.82
2022-08-26T10:10:45.363Z,22.84
2022-08-26T10:13:45.139Z,22.86
2022-08-26T10:16:41.541Z,22.90
2022-08-26T10:19:56.275Z,22.93
2022-08-26T10:22:54.497Z,22.97
2022-08-26T10:25:53.441Z,23.00
2022-08-26T10:28:46.391Z,23.04
2022-08-26T10:31:51.311Z,23.07
2022-08-26T10:34:37.008Z,23.05
2022-08-26T10:37:26.157Z,23.08
2022-08-26T10:40:18.489Z,23.13
2022-08-26T10:43:11.060Z,23.15
2022-08-26T10:46:06.896Z,23.16
2022-08-26T10:49:14.947Z,23.19
2022-08-26T10:52:22.089Z,23.19
2022-08-26T10:55:19.934Z,23.23
2022-08-26T10:58:28.090Z,23.26
2022-08-26T11:01:43.030Z,23.23
2022-08-26T11:04:47.483Z,23.20
2022-08-26T11:07:46.267Z,23.19
2022-08-26T11:10:59.121Z,23.19
2022-08-26T11:13:56.424Z,23.19
2022-08-26T11:16:47.113Z,23.20
2022-08-26T11:19:59.392Z,23.19
2022-08-26T11:22:47.805Z,23.19
2022-08-26T11:25:33.735Z,23.20
2022-08-26T11:28:45.223Z,23.22
2022-08-26T11:31:30.788Z,23.24
2022-08-26T11:34:17.298Z,23.25
2022-08-26T11:37:12.427Z,23.26
2022-08-26T11:39:58.084Z,23.26
2022-08-26T11:42:50.568Z,23.29
2022-08-26T11:46:01.803Z,23.33
2022-08-26T11:48:47.869Z,23.35
2022-08-26T11:51:40.430Z,23.41
2022-08-26T11:54:30.770Z,23.42
2022-08-26T11:57:21.293Z,23.42
2022-08-26T12:00:13.527Z,23.41
2022-08-26T12:03:02.535Z,23.42
2022-08-26T12:05:50.371Z,23.39
2022-08-26T12:08:42.900Z,23.39
2022-08-26T12:11:35.101Z,23.47
2022-08-26T12:14:25.010Z,23.45
2022-08-26T12:17:20.022Z,23.44
2022-08-26T12:20:46.029Z,23.48
2022-08-26T12:23:41.466Z,23.45
2022-08-26T12:26:34.913Z,23.45
2022-08-26T12:29:27.882Z,23.44
2022-08-26T12:32:18.354Z,23.46
2022-08-26T12:37:55.986Z,23.47
2022-08-26T12:40:46.527Z,23.47
2022-08-26T12:43:44.211Z,23.51
2022-08-26T12:46:29.767Z,23.51
2022-08-26T12:49:18.794Z,23.49
2022-08-26T12:52:07.962Z,23.48
2022-08-26T12:54:59.619Z,23.50
2022-08-26T12:57:45.731Z,23.50
2022-08-26T13:00:42.117Z,23.54
2022-08-26T13:03:45.999Z,23.61
2022-08-26T13:06:31.561Z,23.58
2022-08-26T13:09:17.175Z,23.60
2022-08-26T13:12:02.540Z,23.66
2022-08-26T13:14:47.773Z,23.62
2022-08-26T13:17:35.948Z,23.66
2022-08-26T13:20:21.449Z,23.65
2022-08-26T13:23:08.176Z,23.63
2022-08-26T13:25:53.753Z,23.65
2022-08-26T13:28:39.248Z,23.64
2022-08-26T13:31:27.367Z,23.67
2022-08-26T13:34:19.274Z,23.66
2022-08-26T13:37:05.259Z,23.70
2022-08-26T13:39:51.168Z,23.72
2022-08-26T13:42:36.833Z,23.72
2022-08-26T13:45:34.676Z,23.72
2022-08-26T13:48:22.875Z,23.78
2022-08-26T13:51:08.988Z,23.83
2022-08-26T13:53:55.209Z,23.82
2022-08-26T13:56:40.938Z,23.81
2022-08-26T13:59:26.494Z,23.82
2022-08-26T14:02:11.804Z,23.82
2022-08-26T14:04:57.399Z,23.83
2022-08-26T14:07:42.956Z,23.83
2022-08-26T14:10:28.560Z,23.85
2022-08-26T14:13:15.240Z,23.84
2022-08-26T14:16:02.503Z,23.90
2022-08-26T14:18:50.930Z,23.91
2022-08-26T14:21:39.426Z,23.89
2022-08-26T14:24:24.959Z,23.93
2022-08-26T14:27:12.539Z,23.94
2022-08-26T14:29:59.666Z,23.95
2022-08-26T14:32:52.101Z,23.98
2022-08-26T14:35:37.711Z,23.99
2022-08-26T14:38:23.093Z,23.96
2022-08-26T14:41:08.425Z,23.95
2022-08-26T14:44:06.856Z,23.97
2022-08-26T14:46:53.533Z,23.99
2022-08-26T14:49:38.850Z,23.96
2022-08-26T14:52:24.342Z,23.98
2022-08-26T14:55:09.926Z,24.01
2022-08-26T14:57:55.426Z,24.01
2022-08-26T15:00:40.807Z,24.01
2022-08-26T15:03:27.913Z,24.04
2022-08-26T15:06:15.131Z,24.06
2022-08-26T15:09:00.784Z,24.07
2022-08-26T15:11:47.584Z,24.04
2022-08-26T15:14:33.585Z,24.11
2022-08-26T15:17:18.825Z,24.11
2022-08-26T15:20:07.931Z,24.12
2022-08-26T15:22:53.556Z,24.12
2022-08-26T15:25:38.788Z,24.14
2022-08-26T15:28:24.020Z,24.14
2022-08-26T15:31:09.736Z,24.15
2022-08-26T15:33:56.462Z,24.16
2022-08-26T15:36:44.724Z,24.19
2022-08-26T15:39:30.427Z,24.19
2022-08-26T15:42:15.956Z,24.19
2022-08-26T15:45:01.612Z,24.19
2022-08-26T15:48:01.320Z,24.19
2022-08-26T15:50:54.777Z,24.22
2022-08-26T15:53:40.214Z,24.21
2022-08-26T15:56:27.676Z,24.22
2022-08-26T15:59:13.936Z,24.24
2022-08-26T16:02:00.548Z,24.23
2022-08-26T16:04:46.018Z,24.21
2022-08-26T16:07:32.249Z,24.20
2022-08-26T16:10:18.654Z,24.22
2022-08-26T16:13:05.013Z,24.22
2022-08-26T16:15:50.515Z,24.21
2022-08-26T16:18:35.908Z,24.22
2022-08-26T16:21:24.676Z,24.26
2022-08-26T16:24:10.633Z,24.30
2022-08-26T16:26:56.249Z,24.31
2022-08-26T16:29:41.428Z,24.32
2022-08-26T16:32:30.725Z,24.32
2022-08-26T16:35:16.815Z,24.31
2022-08-26T16:38:02.635Z,24.34
2022-08-26T16:40:48.377Z,24.32
2022-08-26T16:43:34.472Z,24.35
2022-08-26T16:46:22.299Z,24.33
2022-08-26T16:49:07.861Z,24.32
2022-08-26T16:51:53.361Z,24.36
2022-08-26T16:54:39.867Z,24.34
2022-08-26T16:57:25.524Z,24.31
2022-08-26T17:00:37.554Z,24.31
2022-08-26T17:03:23.401Z,24.34
2022-08-26T17:06:09.541Z,24.36
2022-08-26T17:08:54.962Z,24.33
2022-08-26T17:11:42.278Z,24.35
2022-08-26T17:14:27.970Z,24.39
2022-08-26T17:17:13.977Z,24.36
2022-08-26T17:20:07.350Z,24.34
2022-08-26T17:22:56.017Z,24.32
2022-08-26T17:25:41.718Z,24.31
2022-08-26T17:28:27.637Z,24.27
2022-08-26T17:31:14.161Z,24.26
2022-08-26T17:34:01.007Z,24.25
2022-08-26T17:36:46.349Z,24.26
2022-08-26T17:39:33.016Z,24.25
2022-08-26T17:42:18.861Z,24.24
2022-08-26T17:45:06.238Z,24.27
2022-08-26T17:47:53.627Z,24.26
2022-08-26T17:50:41.328Z,24.24
2022-08-26T17:53:29.783Z,24.23
2022-08-26T17:56:18.646Z,24.23
2022-08-26T17:59:04.281Z,24.24
2022-08-26T18:01:50.232Z,24.26
2022-08-26T18:04:36.234Z,24.26
2022-08-26T18:07:22.079Z,24.28
2022-08-26T18:10:12.951Z,24.26
2022-08-26T18:12:58.681Z,24.24
2022-08-26T18:15:47.354Z,24.27
2022-08-26T18:18:34.267Z,24.23
2022-08-26T18:21:23.104Z,24.20
2022-08-26T18:24:13.329Z,24.21
2022-08-26T18:26:59.907Z,24.19
2022-08-26T18:29:48.478Z,24.15
2022-08-26T18:32:36.139Z,24.19
2022-08-26T18:35:21.938Z,24.13
2022-08-26T18:38:11.100Z,24.14
2022-08-26T18:40:57.403Z,24.13
2022-08-26T18:43:43.328Z,24.10
2022-08-26T18:46:29.284Z,24.08
2022-08-26T18:49:17.507Z,24.09
2022-08-26T18:52:03.580Z,24.14
2022-08-26T18:54:50.086Z,24.09
2022-08-26T18:57:36.063Z,24.13
2022-08-26T19:00:21.462Z,24.18
2022-08-26T19:03:18.388Z,24.19
2022-08-26T19:06:05.196Z,24.23
2022-08-26T19:08:50.944Z,24.24
2022-08-26T19:11:42.216Z,24.23
2022-08-26T19:14:29.036Z,24.25
2022-08-26T19:17:15.438Z,24.25
2022-08-26T19:20:01.175Z,24.26
2022-08-26T19:22:46.704Z,24.19
2022-08-26T19:25:32.407Z,24.16
2022-08-26T19:28:19.581Z,24.10
2022-08-26T19:31:04.919Z,24.08
2022-08-26T19:33:50.615Z,24.07
2022-08-26T19:36:36.135Z,24.04
2022-08-26T19:39:21.893Z,24.01
2022-08-26T19:42:07.206Z,23.98
2022-08-26T19:45:07.483Z,23.97
2022-08-26T19:47:59.431Z,23.96
2022-08-26T19:50:46.252Z,23.96
2022-08-26T19:53:31.823Z,23.97
2022-08-26T19:56:17.818Z,23.96
2022-08-26T19:59:03.380Z,23.94
2022-08-26T20:02:00.836Z,23.95
2022-08-26T20:04:47.228Z,23.94
2022-08-26T20:07:33.093Z,23.95
2022-08-26T20:10:21.369Z,23.92
2022-08-26T20:13:06.753Z,23.94
2022-08-26T20:15:53.945Z,23.90
2022-08-26T20:18:59.336Z,23.89
2022-08-26T20:21:45.706Z,23.87
2022-08-26T20:24:32.694Z,23.86
2022-08-26T20:27:18.000Z,23.85
2022-08-26T20:30:04.895Z,23.84
2022-08-26T20:32:50.312Z,23.84
2022-08-26T20:35:35.852Z,23.81
2022-08-26T20:38:21.729Z,23.81
2022-08-26T20:41:07.421Z,23.81
2022-08-26T20:43:53.933Z,23.79
2022-08-26T20:46:39.943Z,23.78
2022-08-26T20:49:27.142Z,23.77
2022-08-26T20:52:13.744Z,23.77
2022-08-26T20:54:59.248Z,23.77
2022-08-26T20:57:44.566Z,23.74
2022-08-26T21:00:30.035Z,23.74
2022-08-26T21:03:15.583Z,23.70
2022-08-26T21:06:01.208Z,23.71
2022-08-26T21:08:47.467Z,23.68
2022-08-26T21:11:34.259Z,23.67
2022-08-26T21:14:20.679Z,23.69
2022-08-26T21:17:06.116Z,23.65
2022-08-26T21:19:51.289Z,23.69
2022-08-26T21:22:36.564Z,23.65
2022-08-26T21:25:21.781Z,23.65
2022-08-26T21:28:07.072Z,23.65
2022-08-26T21:30:52.332Z,23.63
2022-08-26T21:33:38.366Z,23.61
2022-08-26T21:36:24.033Z,23.63
2022-08-26T21:39:11.915Z,23.62
2022-08-26T21:41:58.035Z,23.59
2022-08-26T21:44:44.793Z,23.59
2022-08-26T21:47:34.823Z,23.59
2022-08-26T21:50:20.580Z,23.58
2022-08-26T21:53:06.597Z,23.58
2022-08-26T21:55:53.743Z,23.54
2022-08-26T21:58:40.294Z,23.51
2022-08-26T22:01:29.520Z,23.52
2022-08-26T22:04:15.453Z,23.50
2022-08-26T22:07:01.932Z,23.50
2022-08-26T22:09:47.658Z,23.51
2022-08-26T22:12:32.952Z,23.50
2022-08-26T22:15:23.016Z,23.52
2022-08-26T22:18:09.630Z,23.52
2022-08-26T22:20:56.871Z,23.51
2022-08-26T22:23:43.449Z,23.49
2022-08-26T22:26:31.326Z,23.49
2022-08-26T22:29:18.709Z,23.50
2022-08-26T22:32:04.847Z,23.50
2022-08-26T22:34:50.406Z,23.50
2022-08-26T22:37:35.782Z,23.50
2022-08-26T22:40:21.117Z,23.50
2022-08-26T22:43:07.752Z,23.52
2022-08-26T22:45:54.620Z,23.49
2022-08-26T22:48:40.120Z,23.49
2022-08-26T22:51:25.465Z,23.48
2022-08-26T22:54:10.740Z,23.48
2022-08-26T22:56:56.174Z,23.45
2022-08-26T22:59:41.437Z,23.48
2022-08-26T23:02:27.898Z,23.48
2022-08-26T23:05:13.204Z,23.47
2022-08-26T23:07:58.835Z,23.47
2022-08-26T23:10:46.547Z,23.47
2022-08-26T23:13:31.983Z,23.47
2022-08-26T23:16:17.325Z,23.47
2022-08-26T23:19:04.723Z,23.45
2022-08-26T23:21:50.691Z,23.44
2022-08-26T23:24:36.157Z,23.45
2022-08-26T23:27:21.471Z,23.43
2022-08-26T23:30:12.209Z,23.45
2022-08-26T23:32:58.522Z,23.44
2022-08-26T23:35:44.240Z,23.44
2022-08-26T23:38:29.405Z,23.44
2022-08-26T23:41:15.359Z,23.43
2022-08-26T23:44:05.066Z,23.42
2022-08-26T23:46:50.590Z,23.42
2022-08-26T23:49:36.838Z,23.41
2022-08-26T23:52:40.720Z,23.40
2022-08-26T23:55:26.017Z,23.39
2022-08-26T23:58:11.319Z,23.40
